Time;durP1;ratioP1;P1;durP2;ratioP2;P2;SDS_P1;SDS_P2;PMS_P1;PMS_P2;Temp;Humidity;BMP_temperature;BMP_pressure;BME280_temperature;BME280_humidity;BME280_pressure;Samples;Min_cycle;Max_cycle;Signal;HPM_P1;HPM_P2
2024/03/19 00:00:53;;;;;;;5.80;5.20;;;;;;;;;;6102722;23;20179;-80
2024/03/19 00:03:19;;;;;;;5.83;5.23;;;;;;;;;;6078538;23;20171;-79
2024/03/19 00:05:45;;;;;;;5.23;4.83;;;;;;;;;;6077415;23;20183;-83
2024/03/19 00:08:11;;;;;;;5.47;4.90;;;;;;;;;;6078470;23;20172;-80
2024/03/19 00:10:37;;;;;;;5.53;5.03;;;;;;;;;;6078290;23;20174;-78
2024/03/19 00:13:03;;;;;;;5.97;5.40;;;;;;;;;;6102439;23;20174;-82
2024/03/19 00:15:30;;;;;;;6.10;5.30;;;;;;;;;;6102148;23;20160;-79
2024/03/19 00:17:55;;;;;;;5.67;5.10;;;;;;;;;;6102641;23;20617;-81
2024/03/19 00:20:24;;;;;;;5.60;5.10;;;;;;;;;;6102655;23;20203;-82
2024/03/19 00:22:50;;;;;;;5.67;5.10;;;;;;;;;;6078146;23;20198;-83
2024/03/19 00:25:16;;;;;;;6.20;5.60;;;;;;;;;;6054039;23;20177;-79
2024/03/19 00:27:42;;;;;;;6.13;5.53;;;;;;;;;;6054230;23;20167;-82
2024/03/19 00:30:09;;;;;;;7.83;5.60;;;;;;;;;;6077954;23;20176;-82
2024/03/19 00:32:35;;;;;;;6.23;5.63;;;;;;;;;;6101840;23;20226;-81
2024/03/19 00:35:03;;;;;;;5.77;5.27;;;;;;;;;;6101596;23;20187;-81
2024/03/19 00:37:31;;;;;;;5.97;5.37;;;;;;;;;;6101096;23;20190;-80
2024/03/19 00:39:57;;;;;;;6.87;5.80;;;;;;;;;;6100900;23;20237;-81
2024/03/19 00:42:23;;;;;;;6.07;5.30;;;;;;;;;;6101555;23;20199;-81
2024/03/19 00:44:49;;;;;;;5.53;5.03;;;;;;;;;;6076885;23;20483;-80
2024/03/19 00:47:15;;;;;;;5.73;5.07;;;;;;;;;;6100941;23;20167;-81
2024/03/19 00:49:41;;;;;;;5.30;4.80;;;;;;;;;;6101088;23;20275;-81
2024/03/19 00:52:10;;;;;;;7.83;5.43;;;;;;;;;;6076965;23;20171;-81
2024/03/19 00:54:36;;;;;;;6.20;5.60;;;;;;;;;;6100716;23;20168;-82
2024/03/19 00:57:04;;;;;;;7.03;5.87;;;;;;;;;;6076879;23;20619;-79
2024/03/19 00:59:30;;;;;;;7.00;6.40;;;;;;;;;;6052979;23;20176;-81
2024/03/19 01:01:56;;;;;;;6.50;5.90;;;;;;;;;;6076420;23;20207;-80
2024/03/19 01:04:23;;;;;;;6.23;5.63;;;;;;;;;;6076495;23;20477;-79
2024/03/19 01:06:49;;;;;;;7.03;6.27;;;;;;;;;;6052901;23;20178;-80
2024/03/19 01:09:15;;;;;;;6.50;5.87;;;;;;;;;;6100757;23;20160;-79
2024/03/19 01:11:41;;;;;;;6.53;5.87;;;;;;;;;;6076735;23;20175;-80
2024/03/19 01:14:07;;;;;;;6.70;6.00;;;;;;;;;;6076241;23;20202;-81
2024/03/19 01:16:33;;;;;;;6.70;6.00;;;;;;;;;;6076514;23;20250;-80
2024/03/19 01:19:01;;;;;;;7.47;6.53;;;;;;;;;;6076527;23;20164;-79
2024/03/19 01:21:27;;;;;;;6.83;5.90;;;;;;;;;;6052534;23;20187;-79
2024/03/19 01:23:53;;;;;;;7.13;6.43;;;;;;;;;;6100615;23;20607;-82
2024/03/19 01:26:19;;;;;;;7.73;7.00;;;;;;;;;;6052519;23;20200;-81
2024/03/19 01:28:48;;;;;;;8.03;6.90;;;;;;;;;;6076066;23;20206;-82
2024/03/19 01:31:14;;;;;;;7.03;6.33;;;;;;;;;;6076371;23;20196;-80
2024/03/19 01:33:40;;;;;;;7.43;6.63;;;;;;;;;;6076168;23;20689;-83
2024/03/19 01:36:15;;;;;;;7.33;6.63;;;;;;;;;;6076113;23;20713;-80
2024/03/19 01:38:41;;;;;;;7.90;6.50;;;;;;;;;;6076183;23;20504;-80
2024/03/19 01:41:08;;;;;;;6.93;6.10;;;;;;;;;;6052036;23;20194;-79
2024/03/19 01:43:35;;;;;;;7.43;6.73;;;;;;;;;;6076468;23;20167;-81
2024/03/19 01:46:06;;;;;;;7.80;7.00;;;;;;;;;;6100267;23;20187;-80
2024/03/19 01:48:36;;;;;;;7.97;7.17;;;;;;;;;;6076131;23;20283;-80
2024/03/19 01:51:07;;;;;;;7.07;6.43;;;;;;;;;;6100716;23;20151;-82
2024/03/19 01:53:35;;;;;;;7.37;6.67;;;;;;;;;;6052118;23;20230;-82
2024/03/19 01:56:00;;;;;;;8.50;6.77;;;;;;;;;;6100028;23;20237;-82
2024/03/19 01:58:28;;;;;;;7.80;7.00;;;;;;;;;;6075972;23;20606;-80
2024/03/19 02:00:54;;;;;;;8.40;7.23;;;;;;;;;;6075883;23;20199;-81
2024/03/19 02:03:22;;;;;;;8.03;6.90;;;;;;;;;;6052035;23;20513;-81
2024/03/19 02:05:48;;;;;;;7.10;6.40;;;;;;;;;;6099818;23;20240;-80
2024/03/19 02:08:13;;;;;;;8.07;6.90;;;;;;;;;;6076503;23;20164;-83
2024/03/19 02:10:43;;;;;;;8.90;6.87;;;;;;;;;;6100132;23;20167;-81
2024/03/19 02:13:12;;;;;;;8.57;6.60;;;;;;;;;;6100088;23;20172;-80
2024/03/19 02:15:37;;;;;;;8.03;7.23;;;;;;;;;;6099474;23;20289;-80
2024/03/19 02:18:03;;;;;;;10.97;7.77;;;;;;;;;;6075982;23;20171;-80
2024/03/19 02:20:30;;;;;;;8.37;7.03;;;;;;;;;;6099654;23;20183;-81
2024/03/19 02:22:56;;;;;;;8.97;7.30;;;;;;;;;;6100119;23;20611;-79
2024/03/19 02:25:25;;;;;;;8.07;7.27;;;;;;;;;;6076010;23;20218;-79
2024/03/19 02:27:50;;;;;;;10.80;7.30;;;;;;;;;;6099951;23;20515;-79
2024/03/19 02:30:17;;;;;;;8.20;7.00;;;;;;;;;;6052253;23;20195;-80
2024/03/19 02:32:43;;;;;;;8.13;7.33;;;;;;;;;;6076078;23;20172;-81
2024/03/19 02:35:10;;;;;;;8.37;7.13;;;;;;;;;;6051802;23;20198;-80
2024/03/19 02:37:36;;;;;;;7.30;6.57;;;;;;;;;;6099969;23;20174;-80
2024/03/19 02:40:05;;;;;;;8.00;7.20;;;;;;;;;;6076096;23;20172;-80
2024/03/19 02:42:34;;;;;;;8.03;6.87;;;;;;;;;;6099627;23;20171;-80
2024/03/19 02:45:00;;;;;;;8.57;7.17;;;;;;;;;;6099756;23;20163;-80
2024/03/19 02:47:26;;;;;;;8.97;6.63;;;;;;;;;;6076169;23;20255;-82
2024/03/19 02:49:52;;;;;;;8.50;7.17;;;;;;;;;;6051813;23;20611;-83
2024/03/19 02:52:18;;;;;;;7.43;6.57;;;;;;;;;;6075746;23;20168;-80
2024/03/19 02:54:44;;;;;;;7.43;6.63;;;;;;;;;;6051987;23;20296;-81
2024/03/19 02:57:10;;;;;;;8.57;6.67;;;;;;;;;;6099594;23;20227;-80
2024/03/19 02:59:37;;;;;;;7.03;6.33;;;;;;;;;;6100108;23;20206;-82
2024/03/19 03:02:03;;;;;;;7.13;6.43;;;;;;;;;;6075796;23;20198;-82
2024/03/19 03:04:29;;;;;;;7.63;6.50;;;;;;;;;;6076175;23;20188;-82
2024/03/19 03:06:56;;;;;;;7.93;6.50;;;;;;;;;;6099691;23;20182;-80
2024/03/19 03:09:22;;;;;;;7.70;6.90;;;;;;;;;;6075800;23;20171;-80
2024/03/19 03:11:51;;;;;;;7.50;6.73;;;;;;;;;;6076619;23;20164;-79
2024/03/19 03:14:17;;;;;;;8.73;6.90;;;;;;;;;;6099855;23;20164;-80
2024/03/19 03:16:43;;;;;;;7.23;6.50;;;;;;;;;;6075883;23;20655;-81
2024/03/19 03:19:09;;;;;;;8.00;6.50;;;;;;;;;;6099677;23;20160;-80
2024/03/19 03:21:35;;;;;;;7.20;6.37;;;;;;;;;;6075626;23;20238;-80
2024/03/19 03:24:01;;;;;;;7.47;6.77;;;;;;;;;;6075580;23;20623;-82
2024/03/19 03:26:27;;;;;;;7.40;6.70;;;;;;;;;;6077161;23;20226;-79
2024/03/19 03:28:53;;;;;;;7.00;6.30;;;;;;;;;;6101743;23;20651;-80
2024/03/19 03:31:21;;;;;;;8.30;6.50;;;;;;;;;;6078267;23;20258;-80
2024/03/19 03:33:48;;;;;;;7.77;6.80;;;;;;;;;;6101093;23;20615;-79
2024/03/19 03:36:13;;;;;;;8.40;6.57;;;;;;;;;;6101125;23;20287;-83
2024/03/19 03:38:39;;;;;;;8.93;6.53;;;;;;;;;;6053450;23;20246;-80
2024/03/19 03:41:07;;;;;;;7.57;6.50;;;;;;;;;;6077106;23;20196;-79
2024/03/19 03:43:36;;;;;;;7.33;6.63;;;;;;;;;;6077141;23;20175;-81
2024/03/19 03:46:02;;;;;;;8.23;7.00;;;;;;;;;;6101273;23;20172;-80
2024/03/19 03:48:28;;;;;;;7.70;6.90;;;;;;;;;;6076952;23;20168;-80
2024/03/19 03:50:56;;;;;;;7.20;6.50;;;;;;;;;;6053307;23;20175;-81
2024/03/19 03:53:22;;;;;;;7.50;6.43;;;;;;;;;;6101033;23;20254;-80
2024/03/19 03:55:48;;;;;;;8.63;6.50;;;;;;;;;;6077098;23;20159;-81
2024/03/19 03:58:14;;;;;;;9.27;6.53;;;;;;;;;;6100757;23;20172;-79
2024/03/19 04:00:43;;;;;;;7.40;6.67;;;;;;;;;;6077054;23;20218;-82
2024/03/19 04:03:09;;;;;;;7.60;6.80;;;;;;;;;;6100465;23;20196;-80
2024/03/19 04:05:35;;;;;;;8.63;6.70;;;;;;;;;;6100996;23;20171;-82
2024/03/19 04:08:01;;;;;;;7.87;6.87;;;;;;;;;;6053675;23;20230;-81
2024/03/19 04:10:28;;;;;;;8.40;6.50;;;;;;;;;;6101102;23;20183;-80
2024/03/19 04:12:53;;;;;;;6.60;5.80;;;;;;;;;;6053157;23;20607;-82
2024/03/19 04:15:19;;;;;;;8.67;6.90;;;;;;;;;;6052897;23;20622;-80
2024/03/19 04:17:47;;;;;;;7.93;6.30;;;;;;;;;;6052635;23;20183;-80
2024/03/19 04:20:15;;;;;;;7.27;6.47;;;;;;;;;;6100446;23;20168;-79
2024/03/19 04:22:42;;;;;;;7.00;6.30;;;;;;;;;;6076460;23;20171;-82
2024/03/19 04:25:09;;;;;;;7.43;6.30;;;;;;;;;;6100163;23;20258;-82
2024/03/19 04:27:36;;;;;;;8.23;6.90;;;;;;;;;;6100318;23;20630;-82
2024/03/19 04:30:02;;;;;;;8.07;7.27;;;;;;;;;;6076513;23;20619;-81
2024/03/19 04:32:28;;;;;;;8.50;7.60;;;;;;;;;;6095212;23;20208;-82
2024/03/19 04:34:57;;;;;;;8.87;7.87;;;;;;;;;;6047373;23;20258;-80
2024/03/19 04:37:23;;;;;;;8.87;7.23;;;;;;;;;;6095066;23;20168;-83
2024/03/19 04:39:49;;;;;;;8.27;7.27;;;;;;;;;;6071525;23;20179;-81
2024/03/19 04:42:17;;;;;;;10.50;7.33;;;;;;;;;;6047377;23;20200;-80
2024/03/19 04:44:43;;;;;;;8.73;7.53;;;;;;;;;;6095156;23;20172;-80
2024/03/19 04:47:10;;;;;;;11.20;7.53;;;;;;;;;;6071294;23;20179;-82
2024/03/19 04:49:36;;;;;;;9.20;7.50;;;;;;;;;;6095127;23;20176;-81
2024/03/19 04:52:02;;;;;;;9.03;7.87;;;;;;;;;;6095226;23;20639;-81
2024/03/19 04:54:28;;;;;;;8.27;6.97;;;;;;;;;;6071135;23;20179;-81
2024/03/19 04:56:54;;;;;;;8.73;7.40;;;;;;;;;;6047403;23;20180;-85
2024/03/19 04:59:20;;;;;;;8.83;7.33;;;;;;;;;;6071481;23;20176;-82
2024/03/19 05:01:47;;;;;;;8.57;7.67;;;;;;;;;;6094919;23;20191;-82
2024/03/19 05:04:13;;;;;;;8.30;7.30;;;;;;;;;;6047178;23;20164;-83
2024/03/19 05:06:39;;;;;;;8.50;7.60;;;;;;;;;;6095130;23;20168;-81
2024/03/19 05:09:08;;;;;;;12.57;8.10;;;;;;;;;;6070832;23;20168;-83
2024/03/19 05:11:33;;;;;;;12.30;8.57;;;;;;;;;;6047127;23;20227;-80
2024/03/19 05:13:59;;;;;;;9.30;7.83;;;;;;;;;;6094833;23;20615;-82
2024/03/19 05:16:25;;;;;;;9.27;8.27;;;;;;;;;;6094826;23;20218;-84
2024/03/19 05:18:51;;;;;;;9.17;8.20;;;;;;;;;;6047376;23;20165;-81
2024/03/19 05:21:18;;;;;;;11.60;8.03;;;;;;;;;;6119211;23;20651;-81
2024/03/19 05:23:44;;;;;;;9.30;8.13;;;;;;;;;;6071362;23;20632;-81
2024/03/19 05:26:11;;;;;;;9.70;8.00;;;;;;;;;;6094809;23;20231;-81
2024/03/19 05:28:36;;;;;;;9.23;7.73;;;;;;;;;;6070998;23;20632;-81
2024/03/19 05:31:20;;;;;;;8.80;7.50;;;;;;;;;;6070307;23;20204;-80
2024/03/19 05:33:47;;;;;;;9.30;7.40;;;;;;;;;;6047138;23;20202;-81
2024/03/19 05:36:13;;;;;;;8.77;7.63;;;;;;;;;;6070463;23;20194;-81
2024/03/19 05:38:39;;;;;;;9.50;7.93;;;;;;;;;;6094486;23;20168;-82
2024/03/19 05:41:06;;;;;;;8.87;7.73;;;;;;;;;;6070599;23;20200;-82
2024/03/19 05:43:32;;;;;;;11.57;8.50;;;;;;;;;;6046973;23;20235;-80
2024/03/19 05:45:59;;;;;;;8.53;7.63;;;;;;;;;;6119357;23;20160;-80
2024/03/19 05:48:25;;;;;;;8.70;7.73;;;;;;;;;;6095030;23;20168;-81
2024/03/19 05:50:51;;;;;;;9.43;8.20;;;;;;;;;;6046732;23;20192;-83
2024/03/19 05:53:17;;;;;;;9.70;7.37;;;;;;;;;;6070253;23;20203;-80
2024/03/19 05:55:43;;;;;;;9.40;8.17;;;;;;;;;;6094519;23;20166;-81
2024/03/19 05:58:09;;;;;;;9.17;8.13;;;;;;;;;;6071030;23;20164;-82
2024/03/19 06:00:36;;;;;;;9.97;8.77;;;;;;;;;;6070918;23;20254;-80
2024/03/19 06:03:01;;;;;;;10.90;8.67;;;;;;;;;;6095095;23;20227;-80
2024/03/19 06:05:28;;;;;;;13.40;10.20;;;;;;;;;;6094092;23;20167;-83
2024/03/19 06:07:54;;;;;;;10.87;9.63;;;;;;;;;;6092958;23;20516;-81
2024/03/19 06:10:19;;;;;;;10.87;9.70;;;;;;;;;;6070769;23;20624;-81
2024/03/19 06:12:45;;;;;;;11.93;9.83;;;;;;;;;;6070434;23;20172;-79
2024/03/19 06:15:11;;;;;;;11.67;9.70;;;;;;;;;;6070755;23;20627;-82
2024/03/19 06:17:38;;;;;;;11.67;10.30;;;;;;;;;;6046875;23;20179;-81
2024/03/19 06:20:08;;;;;;;11.80;9.40;;;;;;;;;;6094086;23;20179;-79
2024/03/19 06:22:34;;;;;;;12.07;10.60;;;;;;;;;;6069633;23;20184;-81
2024/03/19 06:25:00;;;;;;;11.30;10.10;;;;;;;;;;6094748;23;20171;-78
2024/03/19 06:27:26;;;;;;;11.20;10.10;;;;;;;;;;6092177;23;20603;-82
2024/03/19 06:29:52;;;;;;;11.47;10.27;;;;;;;;;;6068589;23;20238;-80
2024/03/19 06:32:20;;;;;;;11.87;10.23;;;;;;;;;;6069522;23;20278;-80
2024/03/19 06:34:46;;;;;;;10.90;9.80;;;;;;;;;;6093012;23;20188;-80
2024/03/19 06:37:12;;;;;;;11.17;10.00;;;;;;;;;;6094197;23;20164;-80
2024/03/19 06:39:38;;;;;;;12.43;10.57;;;;;;;;;;6094040;23;20694;-81
2024/03/19 06:42:05;;;;;;;11.67;10.47;;;;;;;;;;6094575;23;20631;-78
2024/03/19 06:44:31;;;;;;;12.53;11.00;;;;;;;;;;6094142;23;20177;-81
2024/03/19 06:46:56;;;;;;;12.50;11.20;;;;;;;;;;6093890;23;20175;-81
2024/03/19 06:49:24;;;;;;;11.27;10.17;;;;;;;;;;6094063;23;20168;-80
2024/03/19 06:51:53;;;;;;;12.40;10.87;;;;;;;;;;6094388;23;20219;-80
2024/03/19 06:54:20;;;;;;;12.63;10.60;;;;;;;;;;6094503;23;20170;-81
2024/03/19 06:56:46;;;;;;;12.23;10.93;;;;;;;;;;6070142;23;20179;-81
2024/03/19 06:59:14;;;;;;;12.00;10.70;;;;;;;;;;6094365;23;20245;-80
2024/03/19 07:01:40;;;;;;;12.93;11.50;;;;;;;;;;6095707;23;20239;-80
2024/03/19 07:04:06;;;;;;;14.27;11.27;;;;;;;;;;6071967;23;20633;-82
2024/03/19 07:06:35;;;;;;;13.83;12.13;;;;;;;;;;6096238;23;20211;-80
2024/03/19 07:09:02;;;;;;;14.17;12.10;;;;;;;;;;6095937;23;20196;-82
2024/03/19 07:11:27;;;;;;;13.07;11.53;;;;;;;;;;6096450;23;20171;-79
2024/03/19 07:13:53;;;;;;;13.60;12.20;;;;;;;;;;6095843;23;20507;-79
2024/03/19 07:16:20;;;;;;;15.27;12.03;;;;;;;;;;6071381;23;20172;-80
2024/03/19 07:18:46;;;;;;;14.00;12.57;;;;;;;;;;6095960;23;20659;-81
2024/03/19 07:21:12;;;;;;;13.83;12.37;;;;;;;;;;6095522;23;20655;-81
2024/03/19 07:23:38;;;;;;;15.47;12.40;;;;;;;;;;6095736;23;20172;-81
2024/03/19 07:26:03;;;;;;;15.00;13.33;;;;;;;;;;6047437;23;20215;-82
2024/03/19 07:28:30;;;;;;;15.87;13.60;;;;;;;;;;6095559;23;20252;-83
2024/03/19 07:30:58;;;;;;;14.77;12.50;;;;;;;;;;6095318;23;20196;-80
2024/03/19 07:33:26;;;;;;;14.27;12.77;;;;;;;;;;6048313;23;20176;-82
2024/03/19 07:35:52;;;;;;;15.70;13.43;;;;;;;;;;6095143;23;20188;-83
2024/03/19 07:38:18;;;;;;;16.10;12.60;;;;;;;;;;6095457;23;20528;-80
2024/03/19 07:40:44;;;;;;;14.67;13.13;;;;;;;;;;6095227;23;20176;-81
2024/03/19 07:43:13;;;;;;;15.63;13.40;;;;;;;;;;6071602;23;20243;-80
2024/03/19 07:45:39;;;;;;;15.10;12.47;;;;;;;;;;6095072;23;20192;-81
2024/03/19 07:48:06;;;;;;;15.00;12.90;;;;;;;;;;6095772;23;20172;-80
2024/03/19 07:50:34;;;;;;;14.23;12.43;;;;;;;;;;6071367;23;20161;-80
2024/03/19 07:53:00;;;;;;;15.77;12.93;;;;;;;;;;6095368;23;20195;-82
2024/03/19 07:55:26;;;;;;;13.90;12.43;;;;;;;;;;6094605;23;20183;-82
2024/03/19 07:57:55;;;;;;;13.10;11.67;;;;;;;;;;6094464;23;20168;-81
2024/03/19 08:00:21;;;;;;;13.03;11.53;;;;;;;;;;6095073;23;20171;-79
2024/03/19 08:02:48;;;;;;;17.87;11.80;;;;;;;;;;6094996;23;20556;-80
2024/03/19 08:05:14;;;;;;;13.50;12.10;;;;;;;;;;6095204;23;20200;-80
2024/03/19 08:07:41;;;;;;;14.80;12.57;;;;;;;;;;6095000;23;20273;-80
2024/03/19 08:10:07;;;;;;;14.60;11.93;;;;;;;;;;6094536;23;20222;-81
2024/03/19 08:12:33;;;;;;;12.53;11.13;;;;;;;;;;6094166;23;20175;-80
2024/03/19 08:15:03;;;;;;;14.07;11.80;;;;;;;;;;6094515;23;20165;-78
2024/03/19 08:17:29;;;;;;;13.53;12.13;;;;;;;;;;6094629;23;20172;-79
2024/03/19 08:19:59;;;;;;;13.97;11.67;;;;;;;;;;6094337;23;20168;-82
2024/03/19 08:22:25;;;;;;;13.40;12.00;;;;;;;;;;6094010;23;20640;-80
2024/03/19 08:24:52;;;;;;;13.50;12.10;;;;;;;;;;6094734;23;20233;-79
2024/03/19 08:27:19;;;;;;;13.40;12.00;;;;;;;;;;6095045;23;20330;-78
2024/03/19 08:29:45;;;;;;;15.20;12.13;;;;;;;;;;6095073;23;20172;-80
2024/03/19 08:32:11;;;;;;;12.70;11.20;;;;;;;;;;6095332;23;20192;-80
2024/03/19 08:34:37;;;;;;;12.93;11.47;;;;;;;;;;6095305;23;20211;-80
2024/03/19 08:37:05;;;;;;;12.70;11.27;;;;;;;;;;6095194;23;20168;-80
2024/03/19 08:39:32;;;;;;;12.80;11.50;;;;;;;;;;6094880;23;20218;-79
2024/03/19 08:41:58;;;;;;;12.50;11.20;;;;;;;;;;6095154;23;20184;-81
2024/03/19 08:44:28;;;;;;;13.37;10.97;;;;;;;;;;6095293;23;20172;-81
2024/03/19 08:46:54;;;;;;;12.90;11.37;;;;;;;;;;6070872;23;20169;-81
2024/03/19 08:49:20;;;;;;;15.03;12.97;;;;;;;;;;6095137;23;20235;-79
2024/03/19 08:51:47;;;;;;;19.17;15.27;;;;;;;;;;6094968;23;20675;-82
2024/03/19 08:54:13;;;;;;;12.83;11.53;;;;;;;;;;6046706;23;20164;-83
2024/03/19 08:56:39;;;;;;;12.07;10.87;;;;;;;;;;6095877;23;20168;-80
2024/03/19 08:59:05;;;;;;;11.83;10.50;;;;;;;;;;6047160;23;20492;-81
2024/03/19 09:01:33;;;;;;;12.80;11.33;;;;;;;;;;6094938;23;20243;-84
2024/03/19 09:03:59;;;;;;;10.67;9.57;;;;;;;;;;6095006;23;20248;-80
2024/03/19 09:06:25;;;;;;;10.60;9.50;;;;;;;;;;6094766;23;20168;-80
2024/03/19 09:08:52;;;;;;;10.63;9.57;;;;;;;;;;6094702;23;20164;-79
2024/03/19 09:11:17;;;;;;;11.30;9.40;;;;;;;;;;6094628;23;20180;-81
2024/03/19 09:13:43;;;;;;;11.27;10.10;;;;;;;;;;6094646;23;20169;-81
2024/03/19 09:16:11;;;;;;;10.20;9.20;;;;;;;;;;6070558;23;20175;-81
2024/03/19 09:18:39;;;;;;;11.93;9.57;;;;;;;;;;6094758;23;20192;-81
2024/03/19 09:21:09;;;;;;;9.80;8.80;;;;;;;;;;6093921;23;20188;-79
2024/03/19 09:23:35;;;;;;;9.00;8.10;;;;;;;;;;6094346;23;20172;-79
2024/03/19 09:26:02;;;;;;;7.77;6.97;;;;;;;;;;6094344;23;20184;-80
2024/03/19 09:28:32;;;;;;;8.90;8.00;;;;;;;;;;6094418;23;20204;-82
2024/03/19 09:31:02;;;;;;;9.43;7.43;;;;;;;;;;6094195;23;20200;-79
2024/03/19 09:33:28;;;;;;;7.73;6.73;;;;;;;;;;6094436;23;20168;-81
2024/03/19 09:35:54;;;;;;;7.67;6.37;;;;;;;;;;6094498;23;20212;-79
2024/03/19 09:38:20;;;;;;;8.53;7.47;;;;;;;;;;6094588;23;20190;-80
2024/03/19 09:40:50;;;;;;;7.27;6.60;;;;;;;;;;6094551;23;20631;-81
2024/03/19 09:43:21;;;;;;;7.73;6.90;;;;;;;;;;6094179;23;20222;-82
2024/03/19 09:45:48;;;;;;;8.33;7.53;;;;;;;;;;6094610;23;20157;-81
2024/03/19 09:48:14;;;;;;;9.57;8.53;;;;;;;;;;6094173;23;20182;-82
2024/03/19 09:50:41;;;;;;;8.40;7.53;;;;;;;;;;6071102;23;20172;-81
2024/03/19 09:53:09;;;;;;;8.13;7.10;;;;;;;;;;6070672;23;20174;-81
2024/03/19 09:55:37;;;;;;;8.63;7.70;;;;;;;;;;6070464;23;20172;-80
2024/03/19 09:58:03;;;;;;;9.50;8.50;;;;;;;;;;6094108;23;20256;-80
2024/03/19 10:00:29;;;;;;;11.47;10.37;;;;;;;;;;6119011;23;20168;-80
2024/03/19 10:02:55;;;;;;;9.73;8.67;;;;;;;;;;6094255;23;20239;-81
2024/03/19 10:05:26;;;;;;;11.77;9.77;;;;;;;;;;6095150;23;20183;-80
2024/03/19 10:07:53;;;;;;;10.20;9.07;;;;;;;;;;6093309;23;20172;-82
2024/03/19 10:10:19;;;;;;;10.97;8.50;;;;;;;;;;6118829;23;20176;-81
2024/03/19 10:12:48;;;;;;;9.90;8.90;;;;;;;;;;6093996;23;20231;-80
2024/03/19 10:15:21;;;;;;;10.27;8.77;;;;;;;;;;6092817;23;20192;-79
2024/03/19 10:17:48;;;;;;;10.13;9.10;;;;;;;;;;6091897;23;20171;-80
2024/03/19 10:20:14;;;;;;;10.80;9.33;;;;;;;;;;6070516;23;20204;-79
2024/03/19 10:22:41;;;;;;;11.43;9.27;;;;;;;;;;6094111;23;20180;-81
2024/03/19 10:25:07;;;;;;;11.47;9.77;;;;;;;;;;6093889;23;20191;-81
2024/03/19 10:27:33;;;;;;;21.03;19.03;;;;;;;;;;6094253;23;20207;-80
2024/03/19 10:30:02;;;;;;;10.93;9.80;;;;;;;;;;6094402;23;20255;-81
2024/03/19 10:32:30;;;;;;;10.53;8.83;;;;;;;;;;6093228;23;20208;-77
2024/03/19 10:34:58;;;;;;;9.33;8.33;;;;;;;;;;6094194;23;20532;-79
2024/03/19 10:37:26;;;;;;;11.27;9.17;;;;;;;;;;6094378;23;20169;-79
2024/03/19 10:39:52;;;;;;;9.57;8.57;;;;;;;;;;6094419;23;20171;-80
2024/03/19 10:42:18;;;;;;;11.60;9.10;;;;;;;;;;6094545;23;20182;-80
2024/03/19 10:44:46;;;;;;;9.27;8.33;;;;;;;;;;6094315;23;20168;-80
2024/03/19 10:47:15;;;;;;;10.27;9.27;;;;;;;;;;6094020;23;20161;-78
2024/03/19 10:49:43;;;;;;;11.50;9.30;;;;;;;;;;6094162;23;20172;-81
2024/03/19 10:52:20;;;;;;;10.43;9.43;;;;;;;;;;6070800;23;20165;-81
2024/03/19 10:54:47;;;;;;;10.07;9.07;;;;;;;;;;6070664;23;20235;-80
2024/03/19 10:57:19;;;;;;;11.17;9.93;;;;;;;;;;6094627;23;20167;-78
2024/03/19 10:59:45;;;;;;;11.57;10.27;;;;;;;;;;6070686;23;20152;-79
2024/03/19 11:02:14;;;;;;;11.90;10.70;;;;;;;;;;6094816;23;20188;-80
2024/03/19 11:04:41;;;;;;;11.43;10.07;;;;;;;;;;6094278;23;20177;-79
2024/03/19 11:07:07;;;;;;;12.83;11.47;;;;;;;;;;6094836;23;20178;-80
2024/03/19 11:09:38;;;;;;;11.70;10.50;;;;;;;;;;6094327;23;20168;-80
2024/03/19 11:12:04;;;;;;;12.10;10.30;;;;;;;;;;6094447;23;20176;-79
2024/03/19 11:14:30;;;;;;;12.20;10.60;;;;;;;;;;6071031;23;20262;-78
2024/03/19 11:16:58;;;;;;;11.20;10.03;;;;;;;;;;6094921;23;20168;-79
2024/03/19 11:19:25;;;;;;;11.33;10.10;;;;;;;;;;6094612;23;20168;-80
2024/03/19 11:21:58;;;;;;;13.17;10.70;;;;;;;;;;6094513;23;20197;-78
2024/03/19 11:24:28;;;;;;;11.30;10.20;;;;;;;;;;6094895;23;20499;-80
2024/03/19 11:26:57;;;;;;;11.57;9.97;;;;;;;;;;6094676;23;20171;-79
2024/03/19 11:29:29;;;;;;;11.07;9.57;;;;;;;;;;6094669;23;20152;-80
2024/03/19 11:31:56;;;;;;;10.33;9.23;;;;;;;;;;6070269;23;20247;-80
2024/03/19 11:34:22;;;;;;;10.87;9.83;;;;;;;;;;6094823;23;20179;-80
2024/03/19 11:36:49;;;;;;;10.90;9.20;;;;;;;;;;6095374;23;20196;-79
2024/03/19 11:39:16;;;;;;;10.63;9.53;;;;;;;;;;6071656;23;20171;-79
2024/03/19 11:41:42;;;;;;;13.07;9.70;;;;;;;;;;6119792;23;20188;-78
2024/03/19 11:44:14;;;;;;;11.77;10.03;;;;;;;;;;6047542;23;20176;-78
2024/03/19 11:46:45;;;;;;;11.47;10.13;;;;;;;;;;6072326;23;20191;-79
2024/03/19 11:49:24;;;;;;;10.33;9.33;;;;;;;;;;6097604;23;20164;-81
2024/03/19 11:52:04;;;;;;;9.97;8.97;;;;;;;;;;6121814;23;20176;-80
2024/03/19 11:54:39;;;;;;;10.07;8.97;;;;;;;;;;6073919;23;20172;-79
2024/03/19 11:57:05;;;;;;;12.70;9.33;;;;;;;;;;6121369;23;20196;-78
2024/03/19 11:59:31;;;;;;;10.13;9.13;;;;;;;;;;6096811;23;20172;-78
2024/03/19 12:02:00;;;;;;;11.53;9.23;;;;;;;;;;6096687;23;20636;-78
2024/03/19 12:04:26;;;;;;;9.70;8.70;;;;;;;;;;6096980;23;20168;-81
2024/03/19 12:06:57;;;;;;;10.20;8.93;;;;;;;;;;6120796;23;20235;-79
2024/03/19 12:09:31;;;;;;;11.10;9.90;;;;;;;;;;6049066;23;20216;-79
2024/03/19 12:11:58;;;;;;;10.17;9.10;;;;;;;;;;6072889;23;20164;-78
2024/03/19 12:14:26;;;;;;;10.50;9.40;;;;;;;;;;6096777;23;20181;-81
2024/03/19 12:16:53;;;;;;;10.00;9.00;;;;;;;;;;6096878;23;20169;-81
2024/03/19 12:19:19;;;;;;;10.30;9.20;;;;;;;;;;6097077;23;20215;-79
2024/03/19 12:21:49;;;;;;;10.73;8.87;;;;;;;;;;6096476;23;20215;-78
2024/03/19 12:24:16;;;;;;;12.67;9.83;;;;;;;;;;6048728;23;20169;-79
2024/03/19 12:26:44;;;;;;;10.50;9.40;;;;;;;;;;6097203;23;20164;-79
2024/03/19 12:29:13;;;;;;;11.60;9.00;;;;;;;;;;6121226;23;20612;-79
2024/03/19 12:31:48;;;;;;;10.20;8.77;;;;;;;;;;6072617;23;20566;-81
2024/03/19 12:34:50;;;;;;;9.60;8.60;;;;;;;;;;6096697;23;20207;-78
2024/03/19 12:37:18;;;;;;;9.37;8.37;;;;;;;;;;6095953;23;20160;-79
2024/03/19 12:39:45;;;;;;;9.77;8.77;;;;;;;;;;6095664;23;20168;-78
2024/03/19 12:42:14;;;;;;;9.97;8.97;;;;;;;;;;6095717;23;20189;-79
2024/03/19 12:44:46;;;;;;;11.40;9.17;;;;;;;;;;6095640;23;20168;-79
2024/03/19 12:47:14;;;;;;;9.63;8.67;;;;;;;;;;6072167;23;20173;-79
2024/03/19 12:49:42;;;;;;;9.13;8.10;;;;;;;;;;6071828;23;20186;-79
2024/03/19 12:52:11;;;;;;;10.77;9.17;;;;;;;;;;6095584;23;20223;-81
2024/03/19 12:54:43;;;;;;;9.80;8.80;;;;;;;;;;6049643;23;20156;-82
2024/03/19 12:57:12;;;;;;;9.60;8.60;;;;;;;;;;6071152;23;20488;-79
2024/03/19 12:59:38;;;;;;;9.03;8.13;;;;;;;;;;6071890;23;20176;-80
2024/03/19 13:02:10;;;;;;;10.43;8.87;;;;;;;;;;6071828;23;20236;-79
2024/03/19 13:04:38;;;;;;;9.30;8.37;;;;;;;;;;6047577;23;20169;-79
2024/03/19 13:07:07;;;;;;;10.67;8.80;;;;;;;;;;6071410;23;20175;-79
2024/03/19 13:09:33;;;;;;;9.20;8.30;;;;;;;;;;6071478;23;20169;-79
2024/03/19 13:11:59;;;;;;;10.23;9.23;;;;;;;;;;6047794;23;20195;-80
2024/03/19 13:14:25;;;;;;;9.90;8.90;;;;;;;;;;6095265;23;20177;-79
2024/03/19 13:16:54;;;;;;;11.00;9.80;;;;;;;;;;6095218;23;20199;-80
2024/03/19 13:19:25;;;;;;;9.77;8.87;;;;;;;;;;6071027;23;20564;-82
2024/03/19 13:21:52;;;;;;;9.60;8.70;;;;;;;;;;6071791;23;20181;-79
2024/03/19 13:24:26;;;;;;;9.77;8.77;;;;;;;;;;6071541;23;20199;-80
2024/03/19 13:26:55;;;;;;;10.27;9.27;;;;;;;;;;6048616;23;20552;-80
2024/03/19 13:29:21;;;;;;;9.63;8.60;;;;;;;;;;6071519;23;20247;-78
2024/03/19 13:31:47;;;;;;;9.50;8.27;;;;;;;;;;6070204;23;20294;-79
2024/03/19 13:34:16;;;;;;;9.70;8.70;;;;;;;;;;6048408;23;20199;-78
2024/03/19 13:36:42;;;;;;;10.70;8.20;;;;;;;;;;6071323;23;20164;-79
2024/03/19 13:39:10;;;;;;;8.77;7.87;;;;;;;;;;6071129;23;20160;-79
2024/03/19 13:41:38;;;;;;;9.47;8.57;;;;;;;;;;6118719;23;20275;-78
2024/03/19 13:44:05;;;;;;;10.17;8.73;;;;;;;;;;6047127;23;20299;-79
2024/03/19 13:46:32;;;;;;;9.93;8.93;;;;;;;;;;6095035;23;20626;-80
2024/03/19 13:48:58;;;;;;;9.27;8.37;;;;;;;;;;6094801;23;20171;-80
2024/03/19 13:51:24;;;;;;;10.13;8.80;;;;;;;;;;6095020;23;20175;-79
2024/03/19 13:53:52;;;;;;;10.00;9.00;;;;;;;;;;6095054;23;20497;-78
2024/03/19 13:56:20;;;;;;;9.33;8.33;;;;;;;;;;6094396;23;20168;-81
2024/03/19 13:58:47;;;;;;;9.17;8.27;;;;;;;;;;6094345;23;20502;-80
2024/03/19 14:01:16;;;;;;;9.30;8.30;;;;;;;;;;6046748;23;20188;-79
2024/03/19 14:03:43;;;;;;;8.97;8.07;;;;;;;;;;6119191;23;20145;-79
2024/03/19 14:06:09;;;;;;;9.63;8.63;;;;;;;;;;6070855;23;20194;-79
2024/03/19 14:08:36;;;;;;;10.17;8.90;;;;;;;;;;6095158;23;20218;-79
2024/03/19 14:11:02;;;;;;;9.30;8.30;;;;;;;;;;6070709;23;20164;-82
2024/03/19 14:13:29;;;;;;;9.87;8.90;;;;;;;;;;6094849;23;20179;-78
2024/03/19 14:15:55;;;;;;;9.63;8.47;;;;;;;;;;6070823;23;20198;-79
2024/03/19 14:18:20;;;;;;;9.27;8.27;;;;;;;;;;6094802;23;20172;-79
2024/03/19 14:20:46;;;;;;;10.23;9.13;;;;;;;;;;6119323;23;20183;-79
2024/03/19 14:23:12;;;;;;;10.90;8.73;;;;;;;;;;6094716;23;20663;-78
2024/03/19 14:25:38;;;;;;;10.70;8.90;;;;;;;;;;6094959;23;20165;-78
2024/03/19 14:28:04;;;;;;;9.20;8.30;;;;;;;;;;6070900;23;20202;-79
2024/03/19 14:30:32;;;;;;;8.97;8.03;;;;;;;;;;6099138;23;20211;-79
2024/03/19 14:33:00;;;;;;;9.70;8.30;;;;;;;;;;6075500;23;20159;-78